Time;durP1;ratioP1;P1;durP2;ratioP2;P2;SDS_P1;SDS_P2;PMS_P1;PMS_P2;Temp;Humidity;BMP_temperature;BMP_pressure;BME280_temperature;BME280_humidity;BME280_pressure;Samples;Min_cycle;Max_cycle;Signal;HPM_P1;HPM_P2
2022/06/10 00:02:22;;;;;;;9.90;3.47;;;16.30;77.20;;;;;;5050236;28;20059;-75
2022/06/10 00:04:48;;;;;;;11.38;3.53;;;16.20;77.20;;;;;;5050463;28;20082;-75
2022/06/10 00:07:14;;;;;;;8.90;2.85;;;16.20;76.80;;;;;;5050806;28;20162;-75
2022/06/10 00:09:39;;;;;;;12.88;3.25;;;16.20;76.80;;;;;;5050321;28;20025;-75
2022/06/10 00:12:05;;;;;;;13.80;3.80;;;16.20;77.10;;;;;;5050791;28;20033;-75
2022/06/10 00:14:31;;;;;;;9.35;3.45;;;16.10;77.20;;;;;;5050513;28;20044;-75
2022/06/10 00:16:57;;;;;;;12.07;3.47;;;16.10;77.90;;;;;;5050482;28;20028;-75
2022/06/10 00:19:23;;;;;;;14.55;3.53;;;16.10;78.60;;;;;;5049669;28;20036;-74
2022/06/10 00:21:49;;;;;;;12.43;3.28;;;16.10;78.20;;;;;;5050280;28;20021;-75
2022/06/10 00:24:14;;;;;;;15.45;3.95;;;16.00;78.40;;;;;;5050857;28;20089;-74
2022/06/10 00:26:40;;;;;;;14.70;4.53;;;16.00;78.30;;;;;;5050484;28;20082;-75
2022/06/10 00:29:06;;;;;;;16.63;4.00;;;16.00;78.30;;;;;;5050124;28;20154;-75
2022/06/10 00:31:31;;;;;;;11.30;3.53;;;16.00;78.90;;;;;;5050236;28;20082;-75
2022/06/10 00:33:57;;;;;;;14.35;4.22;;;15.90;79.50;;;;;;5049539;28;20032;-75
2022/06/10 00:36:23;;;;;;;12.50;3.58;;;15.90;79.80;;;;;;5049590;28;20041;-75
2022/06/10 00:38:49;;;;;;;10.57;3.08;;;15.90;80.10;;;;;;5048753;28;20076;-75
2022/06/10 00:41:15;;;;;;;14.13;3.92;;;15.80;80.20;;;;;;5050030;28;20474;-75
2022/06/10 00:43:41;;;;;;;9.10;3.60;;;15.80;80.40;;;;;;5050061;28;20555;-75
2022/06/10 00:46:28;;;;;;;13.50;3.70;;;15.80;80.70;;;;;;5049471;28;20025;-76
2022/06/10 00:49:05;;;;;;;9.15;4.13;;;15.70;80.80;;;;;;5049557;28;20051;-76
2022/06/10 00:51:31;;;;;;;14.57;4.22;;;15.70;80.90;;;;;;5049623;28;20036;-75
2022/06/10 00:54:19;;;;;;;11.23;3.88;;;15.70;81.00;;;;;;5050114;28;20032;-75
2022/06/10 00:56:50;;;;;;;11.10;3.55;;;15.70;81.10;;;;;;5048371;28;20128;-75
2022/06/10 00:59:22;;;;;;;13.27;4.05;;;15.70;81.50;;;;;;5050084;28;20032;-76
2022/06/10 01:02:10;;;;;;;12.27;4.35;;;15.60;81.90;;;;;;5049366;28;20025;-76
2022/06/10 01:04:36;;;;;;;13.90;4.72;;;15.60;82.10;;;;;;5029498;28;20037;-74
2022/06/10 01:07:02;;;;;;;13.32;4.10;;;15.60;82.40;;;;;;5049832;28;20025;-75
2022/06/10 01:09:29;;;;;;;16.13;4.18;;;15.60;82.70;;;;;;5049311;28;20045;-75
2022/06/10 01:12:10;;;;;;;12.75;3.95;;;15.60;82.50;;;;;;5047929;28;20029;-75
2022/06/10 01:15:02;;;;;;;13.40;4.03;;;15.50;82.40;;;;;;5049813;28;20399;-75
2022/06/10 01:17:47;;;;;;;11.38;4.40;;;15.50;82.30;;;;;;5047909;28;20045;-74
2022/06/10 01:20:12;;;;;;;13.15;4.13;;;15.50;82.60;;;;;;5048446;28;20494;-75
2022/06/10 01:22:59;;;;;;;18.23;4.45;;;15.50;82.90;;;;;;5049036;28;20108;-75
2022/06/10 01:25:55;;;;;;;14.07;4.28;;;15.40;83.20;;;;;;5049290;28;20098;-75
2022/06/10 01:28:50;;;;;;;13.15;4.28;;;15.40;83.30;;;;;;5048543;28;20028;-76
2022/06/10 01:31:58;;;;;;;19.65;4.18;;;15.40;83.50;;;;;;5048444;28;20049;-74
2022/06/10 01:34:30;;;;;;;11.98;4.63;;;15.30;83.70;;;;;;4993975;28;22085;-76
2022/06/10 01:37:24;;;;;;;9.90;3.75;;;15.30;83.70;;;;;;5039795;28;20384;-76
2022/06/10 01:40:00;;;;;;;10.57;4.13;;;15.30;84.00;;;;;;5050000;28;20024;-76
2022/06/10 01:42:49;;;;;;;10.40;3.72;;;15.20;83.60;;;;;;5051419;28;20024;-74
2022/06/10 01:45:31;;;;;;;13.02;3.92;;;15.20;84.20;;;;;;5034742;28;20045;-75
2022/06/10 01:48:23;;;;;;;14.25;4.18;;;15.20;84.50;;;;;;5048020;28;20029;-75
2022/06/10 01:51:02;;;;;;;11.23;4.10;;;15.20;84.60;;;;;;5015253;28;20056;-75
2022/06/10 01:53:53;;;;;;;15.65;5.38;;;15.10;84.80;;;;;;5046938;28;20514;-75
2022/06/10 01:56:37;;;;;;;15.07;5.85;;;15.10;85.00;;;;;;5048253;28;20407;-75
2022/06/10 01:59:26;;;;;;;14.52;5.75;;;15.10;85.00;;;;;;5044930;28;20033;-76
2022/06/10 02:02:16;;;;;;;13.60;5.50;;;15.10;85.10;;;;;;5048601;28;20029;-75
2022/06/10 02:04:48;;;;;;;16.67;6.43;;;15.10;85.40;;;;;;5037350;28;20511;-75
2022/06/10 02:07:26;;;;;;;14.88;6.15;;;15.10;85.60;;;;;;5048384;28;20027;-75
2022/06/10 02:09:59;;;;;;;17.17;6.90;;;15.10;85.30;;;;;;5047901;28;20026;-76
2022/06/10 02:12:34;;;;;;;18.88;6.55;;;15.10;85.50;;;;;;5047809;28;20078;-74
2022/06/10 02:15:20;;;;;;;13.50;6.22;;;15.10;85.80;;;;;;5036868;28;20061;-75
2022/06/10 02:17:53;;;;;;;15.90;5.85;;;15.10;85.50;;;;;;5047194;28;20037;-76
2022/06/10 02:20:23;;;;;;;14.80;5.95;;;15.10;85.30;;;;;;5047768;28;20113;-75
2022/06/10 02:22:50;;;;;;;20.30;6.15;;;15.10;85.40;;;;;;5047763;28;20056;-75
2022/06/10 02:25:23;;;;;;;12.35;5.15;;;15.10;85.10;;;;;;5048475;28;20459;-76
2022/06/10 02:27:57;;;;;;;15.20;5.85;;;15.10;85.50;;;;;;5047804;28;20169;-76
2022/06/10 02:30:28;;;;;;;10.30;5.78;;;15.10;85.50;;;;;;5048054;28;20128;-75
2022/06/10 02:32:56;;;;;;;14.02;5.22;;;15.20;85.90;;;;;;5046113;28;20040;-74
2022/06/10 02:35:23;;;;;;;11.38;5.00;;;15.10;86.00;;;;;;5047369;28;20056;-75
2022/06/10 02:37:57;;;;;;;12.60;5.28;;;15.20;86.20;;;;;;5047590;28;20230;-74
2022/06/10 02:40:46;;;;;;;19.00;5.60;;;15.20;86.00;;;;;;5047109;28;20017;-75
2022/06/10 02:43:31;;;;;;;15.63;5.63;;;15.20;86.30;;;;;;5047716;28;20025;-75
2022/06/10 02:46:00;;;;;;;12.98;5.30;;;15.30;86.30;;;;;;5047094;28;20167;-75
2022/06/10 02:49:05;;;;;;;15.05;5.75;;;15.30;85.90;;;;;;5047373;28;20029;-75
2022/06/10 02:51:32;;;;;;;12.82;5.63;;;15.30;85.30;;;;;;5039351;28;20036;-74
2022/06/10 02:54:01;;;;;;;17.90;5.43;;;15.40;84.30;;;;;;5047347;28;20104;-75
2022/06/10 02:56:28;;;;;;;14.32;5.32;;;15.40;84.60;;;;;;5047096;28;20040;-74
2022/06/10 03:01:45;;;;;;;11.55;4.70;;;15.50;83.60;;;;;;5046559;28;20114;-74
2022/06/10 03:04:16;;;;;;;14.32;5.38;;;15.50;83.10;;;;;;5047391;28;20036;-75
2022/06/10 03:06:53;;;;;;;10.30;4.38;;;15.50;82.90;;;;;;5047223;28;20170;-75
2022/06/10 03:10:13;;;;;;;13.65;4.65;;;15.60;83.00;;;;;;5047244;28;20027;-75
2022/06/10 03:13:01;;;;;;;13.70;3.93;;;15.60;82.50;;;;;;4985531;28;20101;-74
2022/06/10 03:15:45;;;;;;;15.05;4.55;;;15.70;82.60;;;;;;5038550;28;20025;-75
2022/06/10 03:18:21;;;;;;;11.63;4.97;;;15.70;82.50;;;;;;5047516;28;20033;-75
2022/06/10 03:20:55;;;;;;;16.05;4.38;;;15.80;82.40;;;;;;5047359;28;20025;-74
2022/06/10 03:23:58;;;;;;;17.10;3.70;;;15.80;82.20;;;;;;5047188;28;20716;-76
2022/06/10 03:26:53;;;;;;;15.27;4.45;;;15.80;82.50;;;;;;5046639;28;20507;-75
2022/06/10 03:29:24;;;;;;;10.77;4.60;;;15.80;82.20;;;;;;5047022;28;20483;-76
2022/06/10 03:32:17;;;;;;;16.98;5.05;;;15.80;82.20;;;;;;5046845;28;20032;-75
2022/06/10 03:34:48;;;;;;;11.68;3.85;;;15.80;82.10;;;;;;5047028;28;20083;-75
2022/06/10 03:37:17;;;;;;;12.18;4.35;;;15.80;82.10;;;;;;5047565;28;20041;-74
2022/06/10 03:39:50;;;;;;;14.18;4.05;;;15.80;82.10;;;;;;5049454;28;20029;-75
2022/06/10 03:42:17;;;;;;;12.20;4.47;;;15.90;82.30;;;;;;5047284;28;20013;-75
2022/06/10 03:44:46;;;;;;;12.35;3.97;;;15.90;82.20;;;;;;5046316;28;20025;-75
2022/06/10 03:47:20;;;;;;;12.95;4.25;;;15.90;82.30;;;;;;5039836;28;20510;-74
2022/06/10 03:49:57;;;;;;;12.55;4.47;;;15.90;82.50;;;;;;5046680;28;20031;-76
2022/06/10 03:52:27;;;;;;;16.88;4.88;;;15.90;82.40;;;;;;5046804;28;20028;-74
2022/06/10 03:54:53;;;;;;;21.08;4.43;;;15.90;82.60;;;;;;5046657;28;20029;-75
2022/06/10 03:57:18;;;;;;;13.32;4.20;;;15.90;82.70;;;;;;5046893;28;20037;-75
2022/06/10 03:59:45;;;;;;;15.02;4.38;;;15.90;82.90;;;;;;5047025;28;20433;-75
2022/06/10 04:02:11;;;;;;;14.10;4.47;;;15.90;83.20;;;;;;5046708;28;20379;-75
2022/06/10 04:04:38;;;;;;;10.98;4.10;;;15.80;83.50;;;;;;5048175;28;20025;-75
2022/06/10 04:07:05;;;;;;;10.73;4.38;;;15.80;84.70;;;;;;5050557;28;20017;-75
2022/06/10 04:09:30;;;;;;;15.15;4.97;;;15.70;86.10;;;;;;5048087;28;20021;-75
2022/06/10 04:11:56;;;;;;;13.30;5.38;;;15.60;87.70;;;;;;5046645;28;20021;-76
2022/06/10 04:14:22;;;;;;;12.35;4.28;;;15.60;88.30;;;;;;5049145;28;20021;-75
2022/06/10 04:16:48;;;;;;;13.63;4.53;;;15.60;88.80;;;;;;5049032;28;20037;-74
2022/06/10 04:19:14;;;;;;;12.38;4.50;;;15.70;88.90;;;;;;5050357;28;20025;-74
2022/06/10 04:21:40;;;;;;;16.08;4.88;;;15.60;89.60;;;;;;5050094;28;20017;-74
2022/06/10 04:24:06;;;;;;;14.38;4.32;;;15.70;89.60;;;;;;5050313;28;20029;-74
2022/06/10 04:26:33;;;;;;;16.42;4.53;;;15.70;90.00;;;;;;5050756;28;20054;-75
2022/06/10 04:28:59;;;;;;;18.27;4.82;;;15.70;90.10;;;;;;5050218;28;20032;-75
2022/06/10 04:31:24;;;;;;;8.57;3.65;;;15.80;90.20;;;;;;5050127;28;20025;-76
2022/06/10 04:33:50;;;;;;;19.23;4.57;;;15.80;90.10;;;;;;5050515;28;20029;-74
2022/06/10 04:36:18;;;;;;;15.48;5.03;;;15.80;90.30;;;;;;5050508;28;20076;-74
2022/06/10 04:38:45;;;;;;;10.15;4.22;;;15.80;90.50;;;;;;5050236;28;20020;-74
2022/06/10 04:41:11;;;;;;;12.70;4.13;;;15.80;90.70;;;;;;5050401;28;20044;-76
2022/06/10 04:43:38;;;;;;;13.52;4.22;;;15.80;90.80;;;;;;5048786;28;20014;-75
2022/06/10 04:46:05;;;;;;;12.45;4.13;;;15.80;91.10;;;;;;5049594;28;20040;-75
2022/06/10 04:48:31;;;;;;;15.82;5.40;;;15.70;91.30;;;;;;5048755;28;20395;-76
2022/06/10 04:50:57;;;;;;;15.80;5.20;;;15.80;91.70;;;;;;5048811;28;20029;-75
2022/06/10 04:53:24;;;;;;;13.50;4.45;;;15.80;92.00;;;;;;5049804;28;20021;-76
2022/06/10 04:55:50;;;;;;;13.18;4.78;;;15.70;92.20;;;;;;5049938;28;20025;-76
2022/06/10 04:58:16;;;;;;;15.02;5.35;;;15.60;92.70;;;;;;5050027;28;20029;-76
2022/06/10 05:00:45;;;;;;;20.13;6.68;;;15.60;92.90;;;;;;5049883;28;20514;-74
2022/06/10 05:03:11;;;;;;;16.08;6.28;;;15.60;93.20;;;;;;5047620;28;20394;-74
2022/06/10 05:05:39;;;;;;;14.35;5.85;;;15.60;93.20;;;;;;5049715;28;20115;-75
2022/06/10 05:08:06;;;;;;;11.00;5.13;;;15.70;93.50;;;;;;5049243;28;20454;-74
2022/06/10 05:10:32;;;;;;;18.20;6.13;;;15.60;93.30;;;;;;5049292;28;20021;-74
2022/06/10 05:12:58;;;;;;;19.20;6.22;;;15.70;93.40;;;;;;5050027;28;20029;-75
2022/06/10 05:15:26;;;;;;;13.00;5.90;;;15.70;93.40;;;;;;5048755;28;20139;-75
2022/06/10 05:17:52;;;;;;;16.35;6.10;;;15.80;93.60;;;;;;5049410;28;20056;-75
2022/06/10 05:20:25;;;;;;;17.05;5.25;;;15.80;93.60;;;;;;5048970;28;20851;-75
2022/06/10 05:22:50;;;;;;;10.45;5.55;;;15.90;93.60;;;;;;5049568;28;20524;-74
2022/06/10 05:25:16;;;;;;;13.43;5.15;;;15.90;92.80;;;;;;5048253;28;20045;-75
2022/06/10 05:27:42;;;;;;;16.23;5.72;;;16.00;93.00;;;;;;5049216;28;20111;-74
2022/06/10 05:30:12;;;;;;;19.40;7.35;;;16.00;93.10;;;;;;5049037;28;20440;-75
2022/06/10 05:32:38;;;;;;;13.57;5.28;;;16.00;93.00;;;;;;5049578;28;20033;-75
2022/06/10 05:35:05;;;;;;;12.73;5.18;;;16.10;93.00;;;;;;5047986;28;20060;-76
2022/06/10 05:37:30;;;;;;;14.00;5.90;;;16.20;92.90;;;;;;5048533;28;20667;-75
2022/06/10 05:39:56;;;;;;;10.00;5.22;;;16.30;92.80;;;;;;5048516;28;20020;-74
2022/06/10 05:42:22;;;;;;;12.40;5.07;;;16.40;92.70;;;;;;5049583;28;20033;-76
2022/06/10 05:44:51;;;;;;;13.27;4.35;;;16.40;92.60;;;;;;5048873;28;20021;-75
2022/06/10 05:47:20;;;;;;;11.90;5.95;;;16.50;92.40;;;;;;5046662;28;20170;-74
2022/06/10 05:49:49;;;;;;;10.18;4.32;;;16.50;92.40;;;;;;5046785;28;20152;-75
2022/06/10 05:52:17;;;;;;;9.98;4.60;;;16.70;92.10;;;;;;5048478;28;20116;-73
2022/06/10 05:54:47;;;;;;;10.73;3.17;;;16.70;91.90;;;;;;5037768;28;20029;-74
2022/06/10 05:57:13;;;;;;;11.70;4.53;;;16.80;90.70;;;;;;5035112;28;20025;-74
2022/06/10 05:59:39;;;;;;;13.68;4.30;;;16.80;91.10;;;;;;5043441;28;20136;-75
2022/06/10 06:02:09;;;;;;;8.02;3.45;;;16.90;90.50;;;;;;5048348;28;20534;-74
2022/06/10 06:04:35;;;;;;;9.10;3.13;;;16.90;90.10;;;;;;5047527;28;20029;-74
2022/06/10 06:07:01;;;;;;;8.45;3.53;;;17.00;89.80;;;;;;5046737;28;20100;-73
2022/06/10 06:09:27;;;;;;;8.95;3.00;;;17.00;88.30;;;;;;5047155;28;20111;-74
2022/06/10 06:11:57;;;;;;;7.65;3.45;;;17.10;88.00;;;;;;5041686;28;20032;-73
2022/06/10 06:14:25;;;;;;;8.98;3.13;;;17.20;89.30;;;;;;5039116;28;20037;-75
2022/06/10 06:17:01;;;;;;;12.05;2.30;;;17.20;87.60;;;;;;5040921;28;20123;-74
2022/06/10 06:19:29;;;;;;;7.15;1.85;;;17.30;85.90;;;;;;5039245;28;20071;-74
2022/06/10 06:21:55;;;;;;;10.07;2.80;;;17.30;85.20;;;;;;5042234;28;20029;-73
2022/06/10 06:24:22;;;;;;;11.18;2.80;;;17.40;87.90;;;;;;5036958;28;20009;-74
2022/06/10 06:26:48;;;;;;;8.85;2.60;;;17.40;89.10;;;;;;5044964;28;20025;-74
2022/06/10 06:29:20;;;;;;;9.68;2.00;;;17.50;86.60;;;;;;5044140;28;20022;-73
2022/06/10 06:31:49;;;;;;;10.02;2.75;;;17.60;85.80;;;;;;5051688;28;20168;-74
2022/06/10 06:34:14;;;;;;;9.40;3.72;;;17.70;83.70;;;;;;5052095;28;20019;-73
2022/06/10 06:36:45;;;;;;;14.95;2.92;;;17.70;85.00;;;;;;5047276;28;20029;-73
2022/06/10 06:39:17;;;;;;;6.72;1.75;;;17.80;83.50;;;;;;5039118;28;20112;-75
2022/06/10 06:41:43;;;;;;;6.15;2.03;;;17.80;79.80;;;;;;5040908;28;20407;-73
2022/06/10 06:44:09;;;;;;;18.55;3.67;;;17.80;80.30;;;;;;5048089;28;20040;-73
2022/06/10 06:46:37;;;;;;;8.13;2.22;;;17.80;81.50;;;;;;5046655;28;20025;-72
2022/06/10 06:49:06;;;;;;;11.18;2.28;;;17.90;81.00;;;;;;5046982;28;20636;-73
2022/06/10 06:51:35;;;;;;;8.18;1.67;;;17.90;79.00;;;;;;5047309;28;20107;-73
2022/06/10 06:54:01;;;;;;;7.60;1.88;;;18.00;77.60;;;;;;5047430;28;20021;-73
2022/06/10 06:56:28;;;;;;;6.20;2.03;;;18.00;77.20;;;;;;5046873;28;20039;-73
2022/06/10 06:58:54;;;;;;;8.00;2.13;;;18.10;76.80;;;;;;5045638;28;20021;-72
2022/06/10 07:01:20;;;;;;;7.00;2.78;;;18.20;76.70;;;;;;5044962;28;20024;-72
2022/06/10 07:03:46;;;;;;;10.98;2.47;;;18.20;78.50;;;;;;5045175;28;20020;-72
2022/06/10 07:06:11;;;;;;;12.82;3.45;;;18.30;77.90;;;;;;5047397;28;20025;-73
2022/06/10 07:08:38;;;;;;;9.68;2.70;;;18.30;77.30;;;;;;5046404;28;20082;-73
2022/06/10 07:11:05;;;;;;;8.10;2.65;;;18.30;76.90;;;;;;5048349;28;20557;-73
2022/06/10 07:13:31;;;;;;;9.82;2.53;;;18.30;75.80;;;;;;5048138;28;20021;-72
2022/06/10 07:15:58;;;;;;;14.85;3.95;;;18.30;76.60;;;;;;5048155;28;20476;-73
2022/06/10 07:18:24;;;;;;;11.77;3.70;;;18.40;79.40;;;;;;5046598;28;20051;-72
2022/06/10 07:20:49;;;;;;;13.02;2.67;;;18.40;79.50;;;;;;5048407;28;20448;-72
2022/06/10 07:23:16;;;;;;;6.95;2.20;;;18.40;77.30;;;;;;5048375;28;20029;-72
2022/06/10 07:25:42;;;;;;;6.70;2.40;;;18.40;75.80;;;;;;5048667;28;20029;-72
2022/06/10 07:28:11;;;;;;;16.02;2.58;;;18.50;74.70;;;;;;5047600;28;20065;-72
2022/06/10 07:30:38;;;;;;;9.90;2.88;;;18.60;75.80;;;;;;5049071;28;20029;-72
2022/06/10 07:33:03;;;;;;;16.17;3.25;;;18.60;74.60;;;;;;5045512;28;20140;-73
2022/06/10 07:35:29;;;;;;;12.18;2.72;;;18.60;76.30;;;;;;5045221;28;20109;-73
2022/06/10 07:37:57;;;;;;;8.32;2.13;;;18.70;75.90;;;;;;5036664;28;20041;-73
2022/06/10 07:43:22;;;;;;;6.30;1.92;;;18.70;75.20;;;;;;5047651;28;20036;-72
2022/06/10 07:45:48;;;;;;;8.27;1.98;;;18.80;74.20;;;;;;5047905;28;20044;-73
2022/06/10 07:48:14;;;;;;;12.77;2.60;;;18.70;75.90;;;;;;5050246;28;20025;-73
2022/06/10 07:50:42;;;;;;;5.93;1.77;;;18.70;75.90;;;;;;5051348;28;20068;-72
2022/06/10 07:53:09;;;;;;;7.10;2.25;;;18.70;75.50;;;;;;5050771;28;20032;-72
2022/06/10 07:55:35;;;;;;;4.55;1.30;;;18.90;74.70;;;;;;5045353;28;20025;-72
2022/06/10 07:58:01;;;;;;;6.18;1.90;;;19.00;73.20;;;;;;5042749;28;20444;-72
2022/06/10 08:00:28;;;;;;;5.88;1.55;;;19.10;74.00;;;;;;5041919;28;20025;-72
2022/06/10 08:02:53;;;;;;;6.45;1.52;;;19.20;73.60;;;;;;5046453;28;20018;-72
2022/06/10 08:05:20;;;;;;;7.07;1.85;;;19.30;73.20;;;;;;5046075;28;20485;-72
2022/06/10 08:07:46;;;;;;;7.03;2.13;;;19.50;71.70;;;;;;5047236;28;20376;-73
2022/06/10 08:10:21;;;;;;;9.10;2.10;;;19.70;74.30;;;;;;5050653;28;20032;-73
2022/06/10 08:12:49;;;;;;;7.57;2.03;;;19.90;72.40;;;;;;5051184;28;20045;-72
2022/06/10 08:15:16;;;;;;;4.03;1.85;;;20.10;71.30;;;;;;5050995;28;20055;-72
2022/06/10 08:17:42;;;;;;;7.60;1.60;;;20.20;71.80;;;;;;5047817;28;20045;-72
2022/06/10 08:20:17;;;;;;;5.40;1.83;;;20.20;71.60;;;;;;5046772;28;20455;-72
2022/06/10 08:22:43;;;;;;;8.25;1.88;;;20.30;70.30;;;;;;5044505;28;20033;-73
2022/06/10 08:25:11;;;;;;;6.88;1.85;;;20.30;71.50;;;;;;5045801;28;20025;-73
2022/06/10 08:27:37;;;;;;;6.72;1.50;;;20.50;71.20;;;;;;5045298;28;20029;-72
2022/06/10 08:30:05;;;;;;;10.63;1.70;;;20.70;69.40;;;;;;5048652;28;20071;-72
2022/06/10 08:32:34;;;;;;;13.25;2.38;;;20.90;69.90;;;;;;5051010;28;20501;-73
2022/06/10 08:35:02;;;;;;;7.60;1.80;;;21.10;68.80;;;;;;5050579;28;20475;-73
2022/06/10 08:37:27;;;;;;;7.00;1.50;;;21.10;68.90;;;;;;5049696;28;20061;-74
2022/06/10 08:39:53;;;;;;;4.85;1.40;;;21.10;67.70;;;;;;5049971;28;20063;-74
2022/06/10 08:42:52;;;;;;;11.02;1.88;;;21.10;68.10;;;;;;5050791;28;20013;-74
2022/06/10 08:45:27;;;;;;;7.80;1.35;;;21.20;68.40;;;;;;5006139;28;20123;-73
2022/06/10 08:48:02;;;;;;;3.92;1.40;;;21.40;68.70;;;;;;5049328;28;20094;-74
2022/06/10 08:50:54;;;;;;;5.43;1.55;;;21.60;67.20;;;;;;5047399;28;20479;-72
2022/06/10 08:53:38;;;;;;;7.47;1.95;;;21.70;67.20;;;;;;5046514;28;20029;-73
2022/06/10 08:56:24;;;;;;;7.85;1.90;;;21.90;65.40;;;;;;5049262;28;20538;-73
2022/06/10 08:58:59;;;;;;;9.50;1.48;;;22.00;65.30;;;;;;5050084;28;20121;-72
2022/06/10 09:01:28;;;;;;;6.82;1.98;;;22.00;65.10;;;;;;5050299;28;20090;-73
2022/06/10 09:04:15;;;;;;;9.18;2.22;;;22.10;65.10;;;;;;5051106;28;20390;-72
2022/06/10 09:06:54;;;;;;;6.65;1.50;;;22.00;64.40;;;;;;5049149;28;20033;-72
2022/06/10 09:09:25;;;;;;;10.35;1.77;;;22.10;64.20;;;;;;5049008;28;20017;-73
2022/06/10 09:12:18;;;;;;;9.32;1.60;;;22.20;64.50;;;;;;5049427;28;20071;-74
2022/06/10 09:14:44;;;;;;;8.25;1.50;;;22.20;64.80;;;;;;5003955;28;20143;-72
2022/06/10 09:17:15;;;;;;;10.50;2.58;;;22.20;64.00;;;;;;5039820;28;20079;-72
2022/06/10 09:19:55;;;;;;;6.72;1.88;;;22.20;64.20;;;;;;5049960;28;20029;-72
2022/06/10 09:22:30;;;;;;;7.28;1.73;;;22.30;65.20;;;;;;5042423;28;20021;-73
2022/06/10 09:25:08;;;;;;;7.45;1.77;;;22.30;63.90;;;;;;5052244;28;20024;-73
2022/06/10 09:27:44;;;;;;;9.07;1.98;;;22.30;64.00;;;;;;5058900;28;20029;-72
2022/06/10 09:30:13;;;;;;;10.07;2.05;;;22.20;63.30;;;;;;5045358;28;20116;-72
2022/06/10 09:33:20;;;;;;;12.38;3.30;;;22.20;64.00;;;;;;5041247;28;20433;-73
2022/06/10 09:35:59;;;;;;;9.23;2.70;;;22.10;63.30;;;;;;5047099;28;20049;-73
2022/06/10 09:38:35;;;;;;;11.40;2.57;;;22.00;63.00;;;;;;5048766;28;20561;-74
2022/06/10 09:41:26;;;;;;;12.02;1.83;;;22.00;64.30;;;;;;5045832;28;20021;-72
2022/06/10 09:44:13;;;;;;;8.50;1.67;;;22.00;63.30;;;;;;5044687;28;20015;-73
2022/06/10 09:47:23;;;;;;;8.23;1.70;;;22.00;64.30;;;;;;5028441;28;20032;-73
2022/06/10 09:50:05;;;;;;;9.20;1.80;;;22.10;63.30;;;;;;5038266;28;20037;-73
2022/06/10 09:52:46;;;;;;;7.93;1.45;;;22.40;63.70;;;;;;5048769;28;20326;-73
2022/06/10 09:55:12;;;;;;;9.48;1.98;;;22.60;63.60;;;;;;5046824;28;20070;-73
2022/06/10 09:57:52;;;;;;;10.27;2.05;;;22.90;61.40;;;;;;5049385;28;20041;-72
2022/06/10 10:00:20;;;;;;;6.70;1.38;;;23.20;61.90;;;;;;5047033;28;20033;-73
2022/06/10 10:03:05;;;;;;;7.97;1.65;;;23.30;61.00;;;;;;5047337;28;20593;-74
2022/06/10 10:06:02;;;;;;;7.65;1.88;;;23.50;61.60;;;;;;5047748;28;20471;-72
2022/06/10 10:09:07;;;;;;;10.07;1.80;;;23.70;60.70;;;;;;5046545;28;20021;-73
2022/06/10 10:11:47;;;;;;;7.28;2.20;;;24.00;59.80;;;;;;5030001;28;20434;-73
2022/06/10 10:14:13;;;;;;;9.02;2.22;;;23.90;59.10;;;;;;5046239;28;20025;-75
2022/06/10 10:16:49;;;;;;;7.78;1.85;;;23.90;60.90;;;;;;5042309;28;20032;-73
2022/06/10 10:19:26;;;;;;;6.50;1.65;;;23.90;60.70;;;;;;5041542;28;20458;-73
2022/06/10 10:22:30;;;;;;;6.75;1.63;;;24.10;60.90;;;;;;5039401;28;20363;-75
2022/06/10 10:24:57;;;;;;;5.60;1.60;;;24.20;59.50;;;;;;5040847;28;20025;-73
2022/06/10 10:27:31;;;;;;;10.25;2.30;;;24.10;61.00;;;;;;5047297;28;20055;-73
2022/06/10 10:30:27;;;;;;;7.53;1.60;;;24.00;60.00;;;;;;5047222;28;20098;-72
2022/06/10 10:33:01;;;;;;;6.25;1.92;;;24.00;60.60;;;;;;5035677;28;20114;-72
2022/06/10 10:35:33;;;;;;;10.13;2.10;;;23.80;60.30;;;;;;5046147;28;20133;-71
2022/06/10 10:38:09;;;;;;;9.77;1.65;;;23.70;60.00;;;;;;5046933;28;20083;-72
2022/06/10 10:40:37;;;;;;;11.35;2.35;;;23.60;62.40;;;;;;5044577;28;20033;-74
2022/06/10 10:43:23;;;;;;;10.68;2.55;;;23.70;61.60;;;;;;5046440;28;20025;-73
2022/06/10 10:46:07;;;;;;;12.00;2.65;;;23.80;61.20;;;;;;5045508;28;20025;-71
2022/06/10 10:48:42;;;;;;;12.43;3.00;;;23.90;60.10;;;;;;5035169;28;20428;-73
2022/06/10 10:51:11;;;;;;;6.70;2.08;;;23.90;59.60;;;;;;5045867;28;20075;-73
2022/06/10 10:53:42;;;;;;;11.75;2.60;;;24.00;60.20;;;;;;5040710;28;20017;-73
2022/06/10 10:56:14;;;;;;;8.10;1.98;;;24.00;59.30;;;;;;5046814;28;20036;-72
2022/06/10 10:58:51;;;;;;;7.78;2.40;;;24.00;59.60;;;;;;5046409;28;20025;-72
2022/06/10 11:01:47;;;;;;;8.48;2.58;;;24.10;59.60;;;;;;5048221;28;20032;-73
2022/06/10 11:04:23;;;;;;;9.82;2.63;;;24.10;60.60;;;;;;5028680;28;20025;-73
2022/06/10 11:06:59;;;;;;;8.52;2.60;;;24.20;60.90;;;;;;5041465;28;20036;-73
2022/06/10 11:09:25;;;;;;;10.95;2.45;;;24.00;59.80;;;;;;5046496;28;20025;-73
2022/06/10 11:11:55;;;;;;;6.57;2.10;;;23.90;60.40;;;;;;5047213;28;20044;-73
2022/06/10 11:14:33;;;;;;;11.48;2.78;;;23.80;61.80;;;;;;5031446;28;20057;-73
2022/06/10 11:17:11;;;;;;;10.85;2.88;;;23.60;61.80;;;;;;5046646;28;20530;-73
2022/06/10 11:19:37;;;;;;;8.43;2.55;;;23.50;61.00;;;;;;5034596;28;20391;-74
2022/06/10 11:22:04;;;;;;;10.00;2.65;;;23.30;62.50;;;;;;5049241;28;20475;-73
2022/06/10 11:24:33;;;;;;;9.68;2.85;;;23.20;63.00;;;;;;5048043;28;20112;-73
2022/06/10 11:27:02;;;;;;;9.88;2.97;;;23.00;63.50;;;;;;5046387;28;20021;-73
2022/06/10 11:29:29;;;;;;;8.23;2.28;;;23.00;62.70;;;;;;5061176;28;20085;-72
2022/06/10 11:32:01;;;;;;;11.57;3.35;;;22.90;65.20;;;;;;5061167;28;20103;-72
2022/06/10 11:34:36;;;;;;;9.60;2.47;;;22.90;64.80;;;;;;5051680;28;20060;-73
2022/06/10 11:37:36;;;;;;;11.75;2.47;;;22.90;64.40;;;;;;5051570;28;20044;-72
2022/06/10 11:40:10;;;;;;;9.10;2.05;;;22.90;64.70;;;;;;5042845;28;20025;-72
2022/06/10 11:42:47;;;;;;;8.45;2.28;;;22.90;65.30;;;;;;5044225;28;20029;-73
2022/06/10 11:45:22;;;;;;;14.25;2.67;;;22.90;64.60;;;;;;5042494;28;20120;-72
2022/06/10 11:48:01;;;;;;;13.93;3.88;;;22.90;64.70;;;;;;5043522;28;20116;-73
2022/06/10 11:50:50;;;;;;;7.50;2.15;;;22.90;63.90;;;;;;5030235;28;20037;-73
2022/06/10 11:53:37;;;;;;;9.98;2.53;;;23.00;64.70;;;;;;5049486;28;20029;-71
2022/06/10 12:01:46;;;;;;;;;;;23.20;62.80;;;;;;5064733;28;20171;-75
2022/06/10 12:04:31;;;;;;;10.13;3.28;;;23.50;62.90;;;;;;5050115;28;19912;-75
2022/06/10 12:07:01;;;;;;;9.80;2.75;;;24.00;61.40;;;;;;5049262;28;20032;-74
2022/06/10 12:09:45;;;;;;;9.05;2.40;;;24.40;60.40;;;;;;5045018;28;20031;-74
2022/06/10 12:12:29;;;;;;;11.55;3.90;;;24.50;60.30;;;;;;5045778;28;20025;-74
2022/06/10 12:15:00;;;;;;;12.82;3.10;;;24.60;58.70;;;;;;5049981;28;20177;-74
2022/06/10 12:17:34;;;;;;;8.02;2.67;;;24.70;59.00;;;;;;5044083;28;20063;-75
2022/06/10 12:20:05;;;;;;;13.27;3.85;;;24.90;58.90;;;;;;5048304;28;20565;-74
2022/06/10 12:22:33;;;;;;;8.75;3.40;;;24.90;58.90;;;;;;5050931;28;20028;-74
2022/06/10 12:24:59;;;;;;;11.15;2.83;;;24.90;58.30;;;;;;5047751;28;20483;-75
2022/06/10 12:27:46;;;;;;;10.38;3.42;;;24.80;59.40;;;;;;5050819;28;20063;-73
2022/06/10 12:30:19;;;;;;;12.70;3.05;;;24.70;59.50;;;;;;5051140;28;20434;-73
2022/06/10 12:32:44;;;;;;;10.20;3.00;;;24.50;59.40;;;;;;5048926;28;20033;-74
2022/06/10 12:35:25;;;;;;;7.43;1.77;;;24.40;59.30;;;;;;5049243;28;20049;-75
2022/06/10 12:38:14;;;;;;;10.45;2.47;;;24.30;60.90;;;;;;5051042;28;20045;-75
2022/06/10 12:40:56;;;;;;;13.15;3.22;;;24.30;61.80;;;;;;5048491;28;20025;-73
2022/06/10 12:43:32;;;;;;;9.88;3.45;;;24.30;60.50;;;;;;5048729;28;20021;-74
2022/06/10 12:46:04;;;;;;;8.18;2.33;;;24.30;61.10;;;;;;5050738;28;20028;-74
2022/06/10 12:48:42;;;;;;;9.52;2.95;;;24.30;61.90;;;;;;5050131;28;20028;-73
2022/06/10 12:51:35;;;;;;;5.05;1.67;;;24.40;61.30;;;;;;5049805;28;20025;-74
2022/06/10 12:54:07;;;;;;;10.60;3.40;;;24.50;61.40;;;;;;5065205;28;20066;-74
2022/06/10 12:56:37;;;;;;;6.50;2.63;;;24.60;59.70;;;;;;5050561;28;20123;-75
2022/06/10 12:59:06;;;;;;;10.68;3.40;;;24.70;59.80;;;;;;5049458;28;20013;-74
2022/06/10 13:01:32;;;;;;;;;;;24.80;58.80;;;;;;5050761;28;20029;-74
2022/06/10 13:04:02;;;;;;;9.77;3.25;;;24.70;59.00;;;;;;5050775;28;20302;-74
2022/06/10 13:06:43;;;;;;;7.25;2.03;;;24.60;59.20;;;;;;5049793;28;20104;-74
2022/06/10 13:09:12;;;;;;;10.75;2.70;;;24.50;61.90;;;;;;5049999;28;20060;-73
2022/06/10 13:11:41;;;;;;;8.57;2.72;;;24.40;61.40;;;;;;5048804;28;20021;-76
2022/06/10 13:14:19;;;;;;;13.98;4.07;;;24.40;60.90;;;;;;5049091;28;20082;-74
2022/06/10 13:16:59;;;;;;;8.93;2.00;;;24.20;60.50;;;;;;5045762;28;20559;-73
2022/06/10 13:19:34;;;;;;;10.07;2.70;;;24.20;61.90;;;;;;5048877;28;20091;-75
2022/06/10 13:22:19;;;;;;;6.95;2.10;;;24.30;61.20;;;;;;5049540;28;20475;-73
2022/06/10 13:24:54;;;;;;;12.90;3.00;;;24.90;61.30;;;;;;5048771;28;20032;-73